createdAt,value
2022-12-13T00:00:22.343Z,96435.13
2022-12-13T00:05:57.566Z,96433.66
2022-12-13T00:11:18.839Z,96440.81
2022-12-13T00:16:39.787Z,96431.22
2022-12-13T00:22:00.966Z,96429.34
2022-12-13T00:27:22.218Z,96437.97
2022-12-13T00:32:43.092Z,96429.97
2022-12-13T00:38:03.750Z,96440.78
2022-12-13T00:43:24.532Z,96430.47
2022-12-13T00:48:50.444Z,96436.91
2022-12-13T00:54:11.408Z,96434.44
2022-12-13T00:59:31.972Z,96440.91
2022-12-13T01:04:52.672Z,96432.03
2022-12-13T01:10:13.440Z,96434.13
2022-12-13T01:15:34.035Z,96432.75
2022-12-13T01:21:04.121Z,96441.56
2022-12-13T01:26:24.814Z,96435.22
2022-12-13T01:31:45.746Z,96432.59
2022-12-13T01:37:06.452Z,96425.25
2022-12-13T01:42:27.114Z,96423.06
2022-12-13T01:47:53.606Z,96423.69
2022-12-13T01:53:18.838Z,96417.28
2022-12-13T01:58:40.826Z,96416.06
2022-12-13T02:04:02.090Z,96428.06
2022-12-13T02:09:23.562Z,96430.38
2022-12-13T02:14:44.680Z,96433.34
2022-12-13T02:20:26.676Z,96431.13
2022-12-13T02:26:05.923Z,96434.34
2022-12-13T02:31:45.583Z,96435.22
2022-12-13T02:37:35.696Z,96429.91
2022-12-13T02:43:09.033Z,96432.25
2022-12-13T02:48:38.404Z,96418.81
2022-12-13T02:53:59.150Z,96415.63
2022-12-13T02:59:20.005Z,96405.69
2022-12-13T03:05:03.575Z,96401.72
2022-12-13T03:10:33.233Z,96395.16
2022-12-13T03:16:00.226Z,96397.81
2022-12-13T03:21:21.235Z,96392.34
2022-12-13T03:26:42.185Z,96391.66
2022-12-13T03:32:04.395Z,96378.13
2022-12-13T03:37:25.521Z,96388.53
2022-12-13T03:42:47.106Z,96377.97
2022-12-13T03:48:08.056Z,96382.56
2022-12-13T03:53:33.022Z,96391.19
2022-12-13T03:58:55.198Z,96386.13
2022-12-13T04:04:15.779Z,96379.16
2022-12-13T04:09:36.607Z,96380.50
2022-12-13T04:14:57.383Z,96384.88
2022-12-13T04:20:18.232Z,96381.69
2022-12-13T04:25:40.504Z,96368.09
2022-12-13T04:31:01.146Z,96373.22
2022-12-13T04:36:31.200Z,96374.31
2022-12-13T04:41:53.738Z,96371.09
2022-12-13T04:47:14.296Z,96367.34
2022-12-13T04:52:35.239Z,96366.28
2022-12-13T04:57:56.346Z,96366.81
2022-12-13T05:03:17.332Z,96361.59
2022-12-13T05:08:38.375Z,96356.84
2022-12-13T05:14:00.404Z,96357.56
2022-12-13T05:19:21.171Z,96360.69
2022-12-13T05:24:51.999Z,96351.97
2022-12-13T05:30:13.282Z,96350.09
2022-12-13T05:35:34.294Z,96356.28
2022-12-13T05:40:55.332Z,96359.28
2022-12-13T05:46:16.760Z,96361.16
2022-12-13T05:51:37.368Z,96363.88
2022-12-13T05:56:58.264Z,96367.28
2022-12-13T06:02:21.692Z,96364.19
2022-12-13T06:07:42.865Z,96362.84
2022-12-13T06:13:21.787Z,96363.94
2022-12-13T06:18:45.984Z,96364.75
2022-12-13T06:24:11.333Z,96371.78
2022-12-13T06:29:32.129Z,96364.59
2022-12-13T06:34:52.792Z,96370.50
2022-12-13T06:40:22.859Z,96373.44
2022-12-13T06:45:43.830Z,96376.41
2022-12-13T06:51:05.324Z,96391.72
2022-12-13T06:56:26.288Z,96383.50
2022-12-13T07:01:50.497Z,96385.94
2022-12-13T07:07:11.403Z,96399.59
2022-12-13T07:12:32.866Z,96401.31
2022-12-13T07:17:53.770Z,96401.03
2022-12-13T07:23:14.439Z,96406.41
2022-12-13T07:28:37.140Z,96407.94
2022-12-13T07:33:57.823Z,96408.31
2022-12-13T07:39:18.571Z,96404.84
2022-12-13T07:44:39.144Z,96411.25
2022-12-13T07:49:59.750Z,96417.72
2022-12-13T07:55:23.322Z,96412.31
2022-12-13T08:01:03.020Z,96416.75
2022-12-13T08:06:24.221Z,96414.78
2022-12-13T08:11:44.874Z,96415.28
2022-12-13T08:17:05.638Z,96416.25
2022-12-13T08:22:26.346Z,96423.66
2022-12-13T08:27:47.118Z,96419.78
2022-12-13T08:33:07.892Z,96423.38
2022-12-13T08:38:28.897Z,96423.44
2022-12-13T08:43:49.702Z,96425.19
2022-12-13T08:49:11.791Z,96424.19
2022-12-13T08:54:35.808Z,96431.97
2022-12-13T08:59:56.957Z,96438.66
2022-12-13T09:05:33.479Z,96443.13
2022-12-13T09:11:00.203Z,96449.19
2022-12-13T09:16:24.901Z,96446.88
2022-12-13T09:21:46.346Z,96443.44
2022-12-13T09:27:10.279Z,96440.25
2022-12-13T09:32:31.741Z,96439.59
2022-12-13T09:37:52.633Z,96446.84
2022-12-13T09:43:31.718Z,96438.19
2022-12-13T09:49:01.513Z,96434.00
2022-12-13T09:54:25.673Z,96434.31
2022-12-13T09:59:47.710Z,96428.06
2022-12-13T10:05:21.832Z,96435.28
2022-12-13T10:10:45.459Z,96421.16
2022-12-13T10:16:36.312Z,96410.59
2022-12-13T10:22:02.211Z,96408.53
2022-12-13T10:27:29.338Z,96400.66
2022-12-13T10:33:02.715Z,96396.81
2022-12-13T10:38:32.003Z,96405.41
2022-12-13T10:44:12.927Z,96400.34
2022-12-13T10:49:40.513Z,96398.53
2022-12-13T10:55:22.808Z,96400.53
2022-12-13T11:00:47.105Z,96397.81
2022-12-13T11:06:16.641Z,96385.28
2022-12-13T11:11:37.397Z,96380.19
2022-12-13T11:17:10.521Z,96382.59
2022-12-13T11:22:37.533Z,96372.38
2022-12-13T11:28:01.233Z,96367.56
2022-12-13T11:33:49.109Z,96358.75
2022-12-13T11:39:19.696Z,96358.88
2022-12-13T11:44:48.069Z,96361.97
2022-12-13T11:50:33.354Z,96352.84
2022-12-13T11:55:58.043Z,96342.13
2022-12-13T12:01:27.877Z,96335.75
2022-12-13T12:07:30.659Z,96338.28
2022-12-13T12:12:55.651Z,96341.81
2022-12-13T12:18:17.000Z,96349.69
2022-12-13T12:24:20.222Z,96351.34
2022-12-13T12:30:01.851Z,96341.00
2022-12-13T12:35:39.222Z,96329.28
2022-12-13T12:41:28.551Z,96322.53
2022-12-13T12:53:13.836Z,96323.72
2022-12-13T12:58:34.867Z,96321.63
2022-12-13T13:04:02.071Z,96318.81
2022-12-13T13:09:24.393Z,96304.25
2022-12-13T13:14:45.649Z,96310.84
2022-12-13T13:20:23.598Z,96322.13
2022-12-13T13:26:15.956Z,96337.94
2022-12-13T13:32:05.451Z,96338.00
2022-12-13T13:37:48.183Z,96338.38
2022-12-13T13:43:12.212Z,96354.88
2022-12-13T13:48:56.699Z,96352.09
2022-12-13T13:54:45.585Z,96355.41
2022-12-13T14:00:29.872Z,96360.88
2022-12-13T14:06:21.449Z,96368.66
2022-12-13T14:12:12.820Z,96377.81
2022-12-13T14:18:01.200Z,96381.03
2022-12-13T14:23:46.807Z,96376.28
2022-12-13T14:29:15.346Z,96373.91
2022-12-13T14:34:37.551Z,96370.03
2022-12-13T14:40:22.954Z,96360.47
2022-12-13T14:45:43.810Z,96361.84
2022-12-13T14:51:04.903Z,96362.50
2022-12-13T14:56:28.389Z,96363.66
2022-12-13T15:02:05.539Z,96354.16
2022-12-13T15:07:35.904Z,96354.44
2022-12-13T15:12:58.237Z,96362.75
2022-12-13T15:18:20.276Z,96373.78
2022-12-13T15:23:53.139Z,96375.56
2022-12-13T15:29:21.333Z,96370.97
2022-12-13T15:34:46.331Z,96372.31
2022-12-13T15:40:08.889Z,96366.84
2022-12-13T15:45:36.694Z,96360.91
2022-12-13T15:51:09.636Z,96364.16
2022-12-13T15:56:33.689Z,96373.34
2022-12-13T16:01:58.522Z,96373.53
2022-12-13T16:07:32.261Z,96357.25
2022-12-13T16:13:02.537Z,96357.81
2022-12-13T16:18:41.562Z,96370.81
2022-12-13T16:24:03.635Z,96374.38
2022-12-13T16:29:24.652Z,96368.22
2022-12-13T16:34:45.535Z,96352.53
2022-12-13T16:40:30.007Z,96354.28
2022-12-13T16:45:53.434Z,96349.00
2022-12-13T16:51:14.012Z,96361.09
2022-12-13T16:56:34.857Z,96368.09
2022-12-13T17:01:56.158Z,96354.38
2022-12-13T17:07:16.923Z,96350.25
2022-12-13T17:12:37.578Z,96357.16
2022-12-13T17:17:58.606Z,96359.47
2022-12-13T17:23:19.625Z,96354.34
2022-12-13T17:28:40.329Z,96359.38
2022-12-13T17:34:01.334Z,96369.69
2022-12-13T17:39:22.962Z,96370.53
2022-12-13T17:44:43.752Z,96370.09
2022-12-13T17:50:04.847Z,96359.53
2022-12-13T17:55:25.432Z,96362.44
2022-12-13T18:00:45.962Z,96363.00
2022-12-13T18:06:07.434Z,96361.03
2022-12-13T18:11:33.329Z,96363.72
2022-12-13T18:16:54.777Z,96361.56
2022-12-13T18:22:15.618Z,96359.34
2022-12-13T18:27:36.329Z,96361.19
2022-12-13T18:32:57.483Z,96361.72
2022-12-13T18:38:18.143Z,96368.31
2022-12-13T18:43:38.925Z,96355.41
2022-12-13T18:48:59.823Z,96363.38
2022-12-13T18:54:20.654Z,96346.22
2022-12-13T18:59:41.416Z,96331.59
2022-12-13T19:05:15.157Z,96339.81
2022-12-13T19:10:36.049Z,96325.97
2022-12-13T19:15:58.424Z,96330.13
2022-12-13T19:21:21.531Z,96327.72
2022-12-13T19:26:42.150Z,96328.56
2022-12-13T19:32:03.118Z,96324.59
2022-12-13T19:37:24.896Z,96332.06
2022-12-13T19:42:45.844Z,96328.31
2022-12-13T19:48:06.391Z,96327.78
2022-12-13T19:53:30.987Z,96335.91
2022-12-13T19:58:51.770Z,96348.50
2022-12-13T20:04:12.654Z,96348.47
2022-12-13T20:09:33.503Z,96344.88
2022-12-13T20:14:54.080Z,96341.53
2022-12-13T20:20:14.933Z,96351.00
2022-12-13T20:25:35.564Z,96346.94
2022-12-13T20:31:28.096Z,96333.81
2022-12-13T20:36:50.148Z,96333.66
2022-12-13T20:42:11.290Z,96325.19
2022-12-13T20:47:37.623Z,96319.22
2022-12-13T20:52:59.410Z,96325.41
2022-12-13T20:58:20.336Z,96322.13
2022-12-13T21:03:41.250Z,96306.09
2022-12-13T21:09:04.091Z,96302.75
2022-12-13T21:14:28.539Z,96284.41
2022-12-13T21:19:49.237Z,96288.22
2022-12-13T21:25:10.042Z,96285.66
2022-12-13T21:30:30.751Z,96284.13
2022-12-13T21:35:51.303Z,96284.41
2022-12-13T21:41:12.191Z,96281.16
2022-12-13T21:47:10.153Z,96276.16
2022-12-13T21:52:13.885Z,96272.50
2022-12-13T21:57:53.355Z,96271.28
2022-12-13T22:03:14.340Z,96272.72
2022-12-13T22:08:35.087Z,96264.91
2022-12-13T22:13:56.907Z,96264.50
2022-12-13T22:19:18.149Z,96249.91
2022-12-13T22:24:38.853Z,96244.69
2022-12-13T22:29:59.719Z,96240.16
2022-12-13T22:35:20.751Z,96230.66
2022-12-13T22:40:41.272Z,96226.31
2022-12-13T22:46:04.083Z,96210.25
2022-12-13T22:51:25.268Z,96210.31
2022-12-13T22:56:49.618Z,96208.25
2022-12-13T23:02:10.659Z,96201.13
2022-12-13T23:07:31.756Z,96189.00
2022-12-13T23:13:04.579Z,96177.31
2022-12-13T23:18:25.824Z,96171.28
2022-12-13T23:23:47.072Z,96165.09
2022-12-13T23:29:09.296Z,96158.34
2022-12-13T23:34:30.264Z,96156.84
2022-12-13T23:39:51.055Z,96156.47
2022-12-13T23:45:11.793Z,96159.00
2022-12-13T23:50:32.769Z,96157.47
2022-12-13T23:55:53.502Z,96158.13
